Time;durP1;ratioP1;P1;durP2;ratioP2;P2;SDS_P1;SDS_P2;PMS_P1;PMS_P2;Temp;Humidity;BMP_temperature;BMP_pressure;BME280_temperature;BME280_humidity;BME280_pressure;Samples;Min_cycle;Max_cycle;Signal;HPM_P1;HPM_P2
2022/09/05 00:00:56;;;;;;;2.42;1.67;;;;;;;17.81;74.60;94046.22;5089215;28;20043;-45
2022/09/05 00:03:48;;;;;;;1.55;1.35;;;;;;;17.89;74.34;94044.03;5089003;28;20102;-45
2022/09/05 00:06:15;;;;;;;1.80;1.70;;;;;;;17.93;74.22;94047.88;5090430;28;20028;-43
2022/09/05 00:08:47;;;;;;;8.75;1.42;;;;;;;17.84;74.97;94043.00;5089244;28;20020;-43
2022/09/05 00:11:20;;;;;;;2.20;1.73;;;;;;;17.83;75.52;94047.09;5090039;28;20505;-43
2022/09/05 00:13:56;;;;;;;1.52;1.42;;;;;;;17.88;75.39;94042.56;5090378;28;20028;-44
2022/09/05 00:16:40;;;;;;;1.70;1.60;;;;;;;18.04;74.16;94047.31;5089095;28;20089;-42
2022/09/05 00:19:30;;;;;;;1.95;1.40;;;;;;;18.02;73.96;94052.00;5080556;28;20513;-42
2022/09/05 00:22:09;;;;;;;2.60;1.40;;;;;;;17.91;74.55;94047.72;5069675;28;20082;-42
2022/09/05 00:24:53;;;;;;;1.77;1.55;;;;;;;17.92;74.35;94040.81;5072581;28;20452;-42
2022/09/05 00:27:27;;;;;;;2.03;1.52;;;;;;;17.99;74.35;94042.03;5073296;28;20572;-43
2022/09/05 00:30:10;;;;;;;2.05;1.85;;;;;;;18.04;74.16;94041.00;5073531;28;20028;-44
2022/09/05 00:33:00;;;;;;;1.70;1.58;;;;;;;17.90;74.69;94045.50;5073347;28;20491;-42
2022/09/05 00:35:47;;;;;;;1.38;1.27;;;;;;;17.88;74.95;94048.91;5073645;28;20063;-42
2022/09/05 00:38:16;;;;;;;1.77;1.52;;;;;;;17.90;75.04;94051.09;5072645;28;20040;-42
2022/09/05 00:40:53;;;;;;;2.72;1.63;;;;;;;17.87;75.34;94032.69;5072120;28;20029;-42
2022/09/05 00:43:24;;;;;;;2.22;1.75;;;;;;;17.93;74.47;94049.94;5073512;28;20024;-42
2022/09/05 00:45:58;;;;;;;8.75;8.30;;;;;;;17.95;74.28;94053.59;5070856;28;20024;-41
2022/09/05 00:48:29;;;;;;;2.40;1.98;;;;;;;18.01;74.15;94056.13;5073452;28;20078;-43
2022/09/05 00:51:13;;;;;;;2.67;2.58;;;;;;;18.05;73.73;94056.44;5073323;28;20032;-42
2022/09/05 00:54:03;;;;;;;3.38;3.08;;;;;;;18.05;73.50;94062.78;5073130;28;20521;-42
2022/09/05 00:57:03;;;;;;;1.52;1.40;;;;;;;18.05;73.11;94067.63;5073255;28;20391;-41
2022/09/05 00:59:41;;;;;;;1.30;1.20;;;;;;;17.98;73.53;94058.03;5050600;28;20132;-44
2022/09/05 01:02:31;;;;;;;1.50;1.35;;;;;;;17.97;73.86;94059.38;5061837;28;20118;-46
2022/09/05 01:05:05;;;;;;;1.73;1.60;;;;;;;17.99;73.62;94056.72;5072715;28;20422;-44
2022/09/05 01:07:47;;;;;;;2.25;2.15;;;;;;;17.88;74.03;94054.47;5071532;28;20021;-41
2022/09/05 01:10:49;;;;;;;2.00;1.63;;;;;;;17.90;73.87;94065.81;5071298;28;20415;-42
2022/09/05 01:13:33;;;;;;;2.22;2.00;;;;;;;17.85;74.12;94061.22;5088271;28;20028;-42
2022/09/05 01:16:23;;;;;;;2.53;1.95;;;;;;;17.77;74.04;94060.63;5072645;28;20028;-43
2022/09/05 01:19:00;;;;;;;1.48;1.38;;;;;;;17.75;74.25;94057.66;5079263;28;20134;-45
2022/09/05 01:21:48;;;;;;;2.80;2.60;;;;;;;17.79;74.86;94063.56;5093026;28;20027;-45
2022/09/05 01:24:37;;;;;;;2.45;2.25;;;;;;;17.83;74.94;94063.88;5052391;28;20492;-43
2022/09/05 01:27:30;;;;;;;9.73;9.23;;;;;;;17.86;75.12;94067.56;5051301;28;20523;-43
2022/09/05 01:30:04;;;;;;;2.50;2.38;;;;;;;17.83;74.31;94057.53;5052418;28;20029;-44
2022/09/05 01:32:55;;;;;;;2.03;1.33;;;;;;;17.88;74.19;94053.75;5067819;28;20045;-43
2022/09/05 01:35:26;;;;;;;2.25;1.70;;;;;;;17.84;73.48;94053.44;5041379;28;20052;-41
2022/09/05 01:38:36;;;;;;;2.53;2.03;;;;;;;17.84;73.38;94056.97;5052056;28;20071;-41
2022/09/05 01:41:22;;;;;;;1.90;1.67;;;;;;;17.83;73.67;94051.94;5010132;28;20050;-43
2022/09/05 01:43:53;;;;;;;2.05;1.50;;;;;;;17.75;74.34;94046.50;5051785;28;20040;-44
2022/09/05 01:46:29;;;;;;;1.45;1.35;;;;;;;17.73;74.18;94045.59;5069442;28;20119;-46
2022/09/05 01:49:09;;;;;;;1.67;1.58;;;;;;;17.78;74.17;94050.19;5071131;28;20469;-44
2022/09/05 01:51:38;;;;;;;1.60;1.50;;;;;;;17.72;74.02;94056.03;5071130;28;20032;-44
2022/09/05 01:54:09;;;;;;;;;;;;;;;17.64;73.89;94049.06;5072435;28;20032;-45
2022/09/05 01:56:39;;;;;;;1.15;1.05;;;;;;;17.49;74.12;94049.28;5071849;28;19962;-42
2022/09/05 01:59:26;;;;;;;1.50;1.40;;;;;;;17.55;73.84;94053.28;5071753;28;20033;-44
2022/09/05 02:02:22;;;;;;;2.15;1.90;;;;;;;17.49;74.45;94063.97;5071808;28;20491;-43
2022/09/05 02:05:14;;;;;;;2.30;2.08;;;;;;;17.40;75.28;94061.84;5068570;28;20739;-43
2022/09/05 02:07:51;;;;;;;2.05;1.83;;;;;;;17.37;74.81;94055.38;5030340;28;20090;-43
2022/09/05 02:10:35;;;;;;;1.70;1.60;;;;;;;17.36;74.80;94056.72;5071844;28;20032;-43
2022/09/05 02:13:28;;;;;;;1.42;1.33;;;;;;;17.29;75.48;94051.22;5071750;28;20028;-42
2022/09/05 02:16:10;;;;;;;2.70;1.80;;;;;;;17.36;75.02;94050.38;5071492;28;20060;-43
2022/09/05 02:18:35;;;;;;;2.42;1.48;;;;;;;17.39;75.23;94054.78;5069954;28;20033;-42
2022/09/05 02:21:07;;;;;;;1.48;1.38;;;;;;;17.48;74.60;94047.81;5071405;28;20107;-42
2022/09/05 02:24:02;;;;;;;1.60;1.50;;;;;;;17.48;74.16;94036.66;5071605;28;20106;-42
2022/09/05 02:26:54;;;;;;;2.10;1.90;;;;;;;17.29;74.98;94038.00;5069148;28;20039;-42
2022/09/05 02:29:29;;;;;;;2.05;1.80;;;;;;;17.32;75.26;94041.69;5039645;28;20041;-42
2022/09/05 02:32:02;;;;;;;2.83;2.15;;;;;;;17.38;75.45;94048.50;5069887;28;20836;-41
2022/09/05 02:34:30;;;;;;;8.27;7.80;;;;;;;17.36;75.86;94044.81;5078568;28;20113;-41
2022/09/05 02:37:16;;;;;;;1.58;1.40;;;;;;;17.44;75.43;94053.78;5071041;28;20431;-42
2022/09/05 02:39:47;;;;;;;4.53;1.70;;;;;;;17.49;75.09;94055.59;5070993;28;20031;-41
2022/09/05 02:42:38;;;;;;;2.92;2.00;;;;;;;17.53;75.13;94053.16;5071307;28;20063;-41
2022/09/05 02:45:16;;;;;;;1.63;1.42;;;;;;;17.48;74.93;94051.31;5067753;28;20124;-41
2022/09/05 02:47:51;;;;;;;1.80;1.60;;;;;;;17.43;74.33;94055.13;5067706;28;20032;-41
2022/09/05 02:51:03;;;;;;;2.03;1.38;;;;;;;17.40;73.83;94053.47;5050752;28;20029;-45
2022/09/05 02:53:30;;;;;;;2.45;1.60;;;;;;;17.41;72.97;94052.19;5018925;28;20429;-45
2022/09/05 02:56:11;;;;;;;1.60;1.50;;;;;;;17.26;73.81;94058.69;5049562;28;20064;-44
2022/09/05 02:58:49;;;;;;;1.30;1.20;;;;;;;17.31;74.80;94052.13;5050884;28;20057;-44
2022/09/05 03:01:29;;;;;;;1.95;1.75;;;;;;;17.42;74.94;94064.81;5057532;28;20536;-43
2022/09/05 03:04:28;;;;;;;2.67;2.03;;;;;;;17.48;74.16;94068.06;5070345;28;20051;-42
2022/09/05 03:07:22;;;;;;;2.70;1.73;;;;;;;17.46;74.03;94065.13;5085507;28;20036;-42
2022/09/05 03:10:20;;;;;;;2.25;2.03;;;;;;;17.33;73.16;94062.69;5069071;28;20032;-42
2022/09/05 03:13:00;;;;;;;2.20;1.65;;;;;;;17.21;73.66;94056.16;5065991;28;20060;-45
2022/09/05 03:15:37;;;;;;;2.38;1.80;;;;;;;17.13;73.59;94055.53;5066365;28;20040;-42
2022/09/05 03:18:18;;;;;;;2.35;2.15;;;;;;;17.16;73.82;94065.53;5067166;28;20479;-43
2022/09/05 03:20:50;;;;;;;2.47;2.00;;;;;;;17.15;74.72;94053.63;5064283;28;20535;-45
2022/09/05 03:23:34;;;;;;;2.13;1.92;;;;;;;17.17;74.06;94062.16;5069687;28;20154;-44
2022/09/05 03:26:26;;;;;;;2.13;1.80;;;;;;;17.05;74.86;94066.03;5069177;28;20024;-46
2022/09/05 03:29:28;;;;;;;1.77;1.63;;;;;;;17.14;75.11;94071.69;5040956;28;20052;-42
2022/09/05 03:32:29;;;;;;;1.85;1.52;;;;;;;17.15;75.08;94075.94;5073097;28;20310;-42
2022/09/05 03:35:33;;;;;;;1.58;1.45;;;;;;;17.16;75.34;94076.69;5046192;28;20098;-41
2022/09/05 03:38:14;;;;;;;2.03;1.77;;;;;;;17.21;74.70;94086.88;5066828;28;20056;-42
2022/09/05 03:40:48;;;;;;;2.05;1.80;;;;;;;17.19;75.81;94076.28;5069676;28;20025;-43
2022/09/05 03:43:24;;;;;;;2.25;1.60;;;;;;;17.12;75.41;94077.09;5066943;28;20111;-42
2022/09/05 03:46:01;;;;;;;1.77;1.60;;;;;;;17.07;75.36;94080.88;5069330;28;20040;-43
2022/09/05 03:48:43;;;;;;;2.63;2.38;;;;;;;16.98;76.36;94084.34;5067828;28;20031;-44
2022/09/05 03:51:30;;;;;;;2.65;1.85;;;;;;;17.01;76.43;94088.78;5068302;28;20066;-44
2022/09/05 03:54:24;;;;;;;1.92;1.73;;;;;;;17.06;76.12;94093.38;5069520;28;20450;-43
2022/09/05 03:57:20;;;;;;;2.20;2.00;;;;;;;17.07;75.95;94091.28;5067226;28;20056;-45
2022/09/05 04:00:11;;;;;;;2.15;1.95;;;;;;;17.02;75.67;94089.53;5070624;28;20024;-44
2022/09/05 04:02:52;;;;;;;2.47;2.20;;;;;;;17.07;75.11;94091.28;5071986;28;20107;-43
2022/09/05 04:05:25;;;;;;;2.30;2.10;;;;;;;16.97;75.66;94082.13;5072616;28;20028;-45
2022/09/05 04:08:04;;;;;;;2.67;2.47;;;;;;;17.06;75.65;94104.53;5072736;28;20103;-46
2022/09/05 04:10:35;;;;;;;1.70;1.60;;;;;;;16.93;75.67;94106.91;5076946;28;20035;-44
2022/09/05 04:13:06;;;;;;;2.33;1.75;;;;;;;16.78;76.12;94109.88;5068377;28;20036;-43
2022/09/05 04:15:35;;;;;;;2.85;1.70;;;;;;;16.76;76.15;94112.50;5071390;28;20024;-44
2022/09/05 04:18:03;;;;;;;3.15;2.50;;;;;;;16.73;75.71;94114.38;5068832;28;20029;-42
2022/09/05 04:20:48;;;;;;;2.58;2.35;;;;;;;16.51;76.89;94107.72;5070209;28;20514;-43
2022/09/05 04:23:53;;;;;;;3.00;1.95;;;;;;;16.47;76.85;94115.72;5080996;28;20024;-44
2022/09/05 04:26:53;;;;;;;2.20;1.98;;;;;;;16.47;76.57;94110.13;5039676;28;20036;-43
2022/09/05 04:29:28;;;;;;;3.17;2.10;;;;;;;16.41;76.74;94120.03;5070386;28;20043;-44
2022/09/05 04:32:05;;;;;;;2.80;2.53;;;;;;;16.19;77.62;94116.16;5071575;28;20024;-43
2022/09/05 04:34:41;;;;;;;3.85;2.35;;;;;;;16.21;77.77;94121.13;5070283;28;20039;-42
2022/09/05 04:37:08;;;;;;;3.78;2.28;;;;;;;16.11;78.57;94123.09;5085050;28;20055;-42
2022/09/05 04:39:34;;;;;;;2.58;2.13;;;;;;;16.09;78.48;94122.91;5070123;28;20070;-42
2022/09/05 04:42:24;;;;;;;2.20;1.98;;;;;;;16.21;77.59;94133.03;5071218;28;20490;-42
2022/09/05 04:44:56;;;;;;;3.35;2.28;;;;;;;16.09;78.21;94129.22;5086110;28;20479;-43
2022/09/05 04:47:42;;;;;;;2.28;1.92;;;;;;;16.00;78.00;94127.06;5067632;28;20036;-42
2022/09/05 04:50:14;;;;;;;2.05;1.85;;;;;;;16.07;77.34;94140.19;5081669;28;20028;-42
2022/09/05 04:52:45;;;;;;;3.70;2.28;;;;;;;16.04;78.06;94141.34;5068630;28;20041;-43
2022/09/05 04:55:23;;;;;;;2.92;2.58;;;;;;;15.93;78.93;94136.22;5072778;28;20074;-43
2022/09/05 04:58:10;;;;;;;4.20;3.00;;;;;;;15.85;79.08;94150.16;5071331;28;20028;-42
2022/09/05 05:00:46;;;;;;;2.80;2.33;;;;;;;15.91;78.89;94141.63;5079845;28;20110;-41
2022/09/05 05:03:14;;;;;;;2.10;1.92;;;;;;;15.90;78.63;94145.69;5088469;28;20024;-42
2022/09/05 05:05:46;;;;;;;2.95;2.58;;;;;;;15.91;78.21;94149.97;5070330;28;20506;-41
2022/09/05 05:08:17;;;;;;;2.30;2.08;;;;;;;15.95;77.67;94155.88;5072261;28;20040;-42
2022/09/05 05:10:46;;;;;;;3.72;2.53;;;;;;;16.03;77.53;94155.81;5069807;28;20483;-42
2022/09/05 05:13:29;;;;;;;2.67;2.28;;;;;;;15.98;78.12;94160.31;5071414;28;20032;-42
2022/09/05 05:16:09;;;;;;;7.35;3.13;;;;;;;15.90;78.58;94165.19;5070591;28;20408;-42
2022/09/05 05:18:54;;;;;;;3.30;2.42;;;;;;;15.99;78.55;94161.78;5070580;28;20021;-43
2022/09/05 05:21:25;;;;;;;2.42;2.15;;;;;;;16.06;77.52;94155.44;5069337;28;20028;-41
2022/09/05 05:23:52;;;;;;;2.45;2.25;;;;;;;16.07;77.86;94168.03;5071169;28;20024;-42
2022/09/05 05:26:25;;;;;;;5.10;2.42;;;;;;;16.06;77.88;94163.03;5072305;28;20020;-42
2022/09/05 05:28:56;;;;;;;2.40;2.20;;;;;;;16.08;78.40;94166.00;5069975;28;20412;-42
2022/09/05 05:31:30;;;;;;;2.75;2.35;;;;;;;16.06;78.65;94168.63;5068809;28;20098;-44
2022/09/05 05:34:02;;;;;;;3.28;2.95;;;;;;;16.14;78.92;94169.28;5082478;28;20024;-42
2022/09/05 05:36:32;;;;;;;3.28;2.72;;;;;;;16.29;78.04;94172.72;5068936;28;20056;-48
2022/09/05 05:39:09;;;;;;;3.25;2.67;;;;;;;16.40;77.53;94169.47;5070069;28;20032;-42
2022/09/05 05:41:51;;;;;;;2.40;2.20;;;;;;;16.53;76.93;94169.19;5070730;28;20032;-47
2022/09/05 05:44:19;;;;;;;1.65;1.52;;;;;;;16.62;76.71;94171.34;5070016;28;20078;-42
2022/09/05 05:47:08;;;;;;;2.70;1.83;;;;;;;16.62;76.16;94171.34;5070513;28;20029;-43
2022/09/05 05:49:37;;;;;;;5.28;2.85;;;;;;;16.70;75.94;94167.78;5068612;28;20041;-42
2022/09/05 05:52:30;;;;;;;1.73;1.58;;;;;;;16.67;76.05;94178.72;5070595;28;20074;-44
2022/09/05 05:55:01;;;;;;;2.22;1.70;;;;;;;16.82;74.64;94172.28;5070540;28;20032;-42
2022/09/05 05:58:13;;;;;;;3.00;1.77;;;;;;;16.88;74.68;94172.03;5086134;28;20414;-44
2022/09/05 06:00:53;;;;;;;2.08;1.88;;;;;;;16.97;74.50;94171.41;5023687;28;20123;-43
2022/09/05 06:03:56;;;;;;;1.38;1.25;;;;;;;16.96;70.15;94170.66;5065755;28;20081;-45
2022/09/05 06:06:31;;;;;;;1.55;1.45;;;;;;;17.02;66.42;94162.78;5066943;28;20453;-42
2022/09/05 06:09:33;;;;;;;1.42;1.25;;;;;;;17.16;66.25;94172.31;5084507;28;20031;-42
2022/09/05 06:12:17;;;;;;;2.67;1.80;;;;;;;17.22;65.99;94170.00;5068405;28;20060;-41
2022/09/05 06:15:02;;;;;;;1.00;0.90;;;;;;;17.30;66.56;94176.22;5069820;28;20119;-42
2022/09/05 06:17:34;;;;;;;1.38;1.27;;;;;;;17.26;65.47;94173.09;5067690;28;20511;-43
2022/09/05 06:20:19;;;;;;;1.50;1.40;;;;;;;17.42;64.76;94173.69;5068119;28;20075;-44
2022/09/05 06:22:50;;;;;;;1.45;1.35;;;;;;;17.67;62.24;94176.38;5067976;28;20097;-44
2022/09/05 06:25:38;;;;;;;1.70;1.52;;;;;;;17.76;62.85;94176.44;5068452;28;20047;-43
2022/09/05 06:28:41;;;;;;;1.98;1.83;;;;;;;17.86;61.34;94182.09;5066265;28;20578;-43
2022/09/05 06:31:33;;;;;;;1.85;1.50;;;;;;;17.94;62.54;94186.25;5066324;28;20028;-43
2022/09/05 06:34:32;;;;;;;3.63;3.33;;;;;;;18.11;61.66;94191.03;5068137;28;20044;-42
2022/09/05 06:37:10;;;;;;;4.03;2.67;;;;;;;18.16;61.62;94187.25;5065812;28;20106;-41
2022/09/05 06:39:44;;;;;;;2.47;1.75;;;;;;;18.19;62.18;94184.03;5064858;28;20047;-45
2022/09/05 06:42:21;;;;;;;1.38;1.10;;;;;;;18.04;59.88;94159.09;5082096;28;20359;-43
2022/09/05 14:38:17;;;;;;;1.23;1.00;;;;;;;24.30;42.36;94098.69;5061639;28;21265;-60
2022/09/05 14:41:20;;;;;;;1.75;1.50;;;;;;;24.17;42.07;94096.56;5061409;28;20032;-61
2022/09/05 14:44:14;;;;;;;2.00;1.08;;;;;;;23.98;41.25;94102.56;5083533;27;20025;-60
2022/09/05 14:46:51;;;;;;;1.48;1.08;;;;;;;23.65;41.69;94102.84;5059738;28;20029;-60
2022/09/05 14:49:46;;;;;;;1.25;1.08;;;;;;;23.38;43.36;94082.28;5061406;28;20033;-61
2022/09/05 14:52:33;;;;;;;1.20;1.10;;;;;;;23.47;43.70;94112.38;5061136;28;20028;-59
2022/09/05 14:55:02;;;;;;;1.50;1.17;;;;;;;23.24;43.84;94090.63;5061166;28;20520;-66
2022/09/05 14:57:28;;;;;;;;;;;;;;;23.47;45.52;94112.38;5062089;28;20509;-60
2022/09/05 14:59:56;;;;;;;2.05;1.10;;;;;;;23.45;44.14;94115.09;5061553;27;19908;-57
2022/09/05 15:02:39;;;;;;;1.08;0.98;;;;;;;23.43;44.21;94101.63;5040171;27;20036;-63
2022/09/05 15:05:15;;;;;;;1.70;1.00;;;;;;;23.50;44.20;94108.34;5039967;28;20428;-63
2022/09/05 15:07:43;;;;;;;1.45;1.02;;;;;;;23.33;44.03;94110.22;5047408;28;20040;-63
2022/09/05 15:10:21;;;;;;;1.40;1.30;;;;;;;23.31;44.41;94112.16;5053342;28;20025;-60
2022/09/05 15:13:11;;;;;;;0.93;0.90;;;;;;;23.21;44.49;94108.78;5050213;28;20493;-66
2022/09/05 15:15:40;;;;;;;1.20;1.10;;;;;;;23.29;44.64;94109.97;5040547;28;20489;-65
2022/09/05 15:18:21;;;;;;;1.52;1.42;;;;;;;23.18;43.87;94107.91;5052343;28;20036;-60
2022/09/05 15:20:56;;;;;;;2.70;1.30;;;;;;;23.00;45.22;94112.47;5053014;28;20527;-60
2022/09/05 15:23:21;;;;;;;1.58;1.30;;;;;;;23.05;44.38;94119.09;5051153;28;20029;-60
2022/09/05 15:25:49;;;;;;;1.23;1.10;;;;;;;23.03;45.46;94113.34;5050430;28;20505;-60
2022/09/05 15:28:32;;;;;;;1.40;1.30;;;;;;;22.88;45.98;94120.22;5053144;28;20037;-62
2022/09/05 15:31:22;;;;;;;1.83;1.08;;;;;;;22.87;45.92;94118.75;5052156;28;20029;-61
2022/09/05 15:33:50;;;;;;;2.05;1.27;;;;;;;22.78;46.58;94128.09;5052748;28;20108;-62
2022/09/05 15:36:35;;;;;;;1.65;1.20;;;;;;;22.69;45.90;94122.56;5052253;27;20501;-63
2022/09/05 15:39:21;;;;;;;1.15;1.02;;;;;;;22.44;46.36;94125.97;5038109;28;20179;-67
2022/09/05 15:41:47;;;;;;;1.70;1.30;;;;;;;22.18;46.28;94115.91;5037581;28;20037;-65
2022/09/05 15:44:26;;;;;;;1.10;1.00;;;;;;;22.12;46.41;94129.63;5037649;28;20024;-67
2022/09/05 15:47:16;;;;;;;1.27;1.17;;;;;;;22.10;46.96;94124.59;5037504;28;20455;-64
2022/09/05 15:49:47;;;;;;;1.05;0.95;;;;;;;22.01;47.36;94133.88;5039902;28;20040;-65
2022/09/05 15:52:13;;;;;;;1.27;1.00;;;;;;;21.91;47.51;94129.69;5037894;28;20029;-65
2022/09/05 15:55:34;;;;;;;1.40;1.23;;;;;;;21.87;48.00;94130.91;5032680;28;20434;-63
2022/09/05 15:58:02;;;;;;;1.23;1.13;;;;;;;21.82;47.96;94128.44;5016281;28;20521;-64
2022/09/05 16:00:46;;;;;;;2.90;1.58;;;;;;;21.79;48.81;94121.94;5037465;28;20040;-62
2022/09/05 16:03:17;;;;;;;0.98;0.98;;;;;;;21.69;48.29;94126.19;5045706;28;20056;-63
2022/09/05 16:05:57;;;;;;;1.77;1.00;;;;;;;21.42;48.65;94118.16;5046833;28;20103;-63
2022/09/05 16:08:27;;;;;;;1.52;1.30;;;;;;;21.39;49.50;94122.19;5043395;28;20037;-63
2022/09/05 16:11:12;;;;;;;1.35;1.23;;;;;;;;;;5036848;28;20033;-63
2022/09/05 16:13:41;;;;;;;3.03;1.60;;;;;;;21.17;50.31;94120.00;5044206;28;20037;-63
2022/09/05 16:16:12;;;;;;;1.10;0.90;;;;;;;20.93;49.85;94102.25;5036217;28;20040;-61
2022/09/05 16:18:43;;;;;;;1.45;1.10;;;;;;;20.92;50.00;94123.97;5034153;28;20033;-62
2022/09/05 16:21:11;;;;;;;1.70;1.20;;;;;;;20.88;50.54;94128.56;5026814;28;20558;-62
2022/09/05 16:24:06;;;;;;;1.58;1.17;;;;;;;20.87;51.28;94113.84;5027109;28;20112;-63
2022/09/05 16:26:38;;;;;;;1.77;1.55;;;;;;;20.73;51.08;94126.91;5024142;28;20112;-63
2022/09/05 16:29:09;;;;;;;1.23;1.00;;;;;;;20.73;51.58;94128.97;5025306;28;20034;-63
2022/09/05 16:32:00;;;;;;;2.78;1.38;;;;;;;20.72;51.90;94133.88;5029254;28;20033;-64
2022/09/05 16:34:33;;;;;;;1.08;0.98;;;;;;;20.69;52.20;94134.31;5039357;27;20496;-62
2022/09/05 16:37:14;;;;;;;2.33;1.33;;;;;;;20.65;52.42;94137.59;5037127;28;20044;-62
2022/09/05 16:39:54;;;;;;;1.45;1.27;;;;;;;20.69;52.19;94132.25;5044313;28;20521;-62
2022/09/05 16:42:35;;;;;;;2.30;1.50;;;;;;;20.58;52.52;94135.69;5045521;28;20051;-63
2022/09/05 16:45:12;;;;;;;0.95;0.95;;;;;;;20.56;52.88;94129.22;5043806;28;20029;-62
2022/09/05 16:48:01;;;;;;;4.90;1.90;;;;;;;20.54;52.79;94146.66;5037640;28;20041;-61
2022/09/05 16:51:03;;;;;;;1.50;1.10;;;;;;;20.36;52.75;94151.75;5037748;28;20054;-62
2022/09/05 16:53:36;;;;;;;1.30;1.00;;;;;;;20.34;53.49;94142.47;5032920;28;20148;-61
2022/09/05 16:56:11;;;;;;;2.47;1.40;;;;;;;20.29;54.07;94141.44;5035733;28;20029;-62
2022/09/05 16:58:43;;;;;;;1.08;1.02;;;;;;;20.26;53.72;94144.72;5036485;28;20026;-61
2022/09/05 17:01:29;;;;;;;1.40;1.17;;;;;;;20.24;53.55;94155.78;5032232;28;20108;-62
2022/09/05 17:04:12;;;;;;;1.35;1.15;;;;;;;20.21;55.05;94149.31;5034390;28;20028;-62
2022/09/05 17:06:56;;;;;;;1.13;1.02;;;;;;;20.19;54.49;94145.59;5036716;28;20048;-62
2022/09/05 17:09:47;;;;;;;4.82;1.52;;;;;;;20.05;54.88;94150.22;5034076;28;20128;-63
2022/09/05 17:12:16;;;;;;;1.55;1.45;;;;;;;19.99;55.19;94153.31;5038688;28;20042;-62
2022/09/05 17:14:47;;;;;;;1.38;1.27;;;;;;;19.90;55.13;94150.56;5037233;28;20034;-63
2022/09/05 17:17:15;;;;;;;1.35;1.25;;;;;;;19.99;55.39;94150.50;5035446;28;20029;-61
2022/09/05 17:19:48;;;;;;;1.30;1.20;;;;;;;19.98;55.58;94153.91;5034334;28;20064;-63
2022/09/05 17:22:19;;;;;;;2.08;1.33;;;;;;;20.06;55.22;94160.84;5031601;28;20021;-62
2022/09/05 17:24:52;;;;;;;1.92;1.30;;;;;;;20.06;55.08;94160.84;5034694;28;20697;-62
2022/09/05 17:27:26;;;;;;;1.50;1.40;;;;;;;20.10;54.99;94163.16;5038572;28;20481;-62
2022/09/05 17:29:51;;;;;;;1.85;1.60;;;;;;;20.12;54.78;94158.44;5035061;28;20029;-63
2022/09/05 17:32:33;;;;;;;1.25;1.15;;;;;;;20.06;55.21;94162.91;5035432;28;20040;-62
2022/09/05 17:35:09;;;;;;;1.50;1.05;;;;;;;19.89;55.21;94160.28;5033782;28;20099;-62
2022/09/05 17:37:35;;;;;;;1.42;1.08;;;;;;;19.79;55.58;94157.50;5032854;28;20037;-62
2022/09/05 17:40:28;;;;;;;2.83;1.55;;;;;;;19.69;55.82;94162.38;5037371;28;20033;-62
2022/09/05 17:43:00;;;;;;;1.98;1.20;;;;;;;19.55;56.43;94173.31;5035451;28;20051;-62
2022/09/05 17:45:32;;;;;;;1.63;1.00;;;;;;;19.47;56.46;94172.72;5032765;28;20407;-62
2022/09/05 17:47:58;;;;;;;1.38;1.27;;;;;;;19.45;56.12;94169.78;5031633;28;20589;-61
2022/09/05 17:50:24;;;;;;;1.05;1.00;;;;;;;19.32;56.50;94169.44;5039760;28;20116;-62
2022/09/05 17:52:57;;;;;;;1.52;1.42;;;;;;;19.35;57.79;94168.31;5038713;28;20040;-62
2022/09/05 17:55:38;;;;;;;1.55;1.10;;;;;;;19.30;57.53;94169.31;5033720;28;20072;-63
2022/09/05 17:58:26;;;;;;;1.48;1.10;;;;;;;19.32;57.00;94169.44;5033655;28;20028;-64
2022/09/05 18:00:59;;;;;;;1.85;1.20;;;;;;;19.31;57.27;94170.78;5035738;28;20561;-37
2022/09/05 18:03:40;;;;;;;1.38;1.23;;;;;;;19.31;58.29;94173.59;5025246;28;20028;-37
2022/09/05 18:06:15;;;;;;;1.38;1.27;;;;;;;19.20;58.27;94168.56;5027961;28;20029;-37
2022/09/05 18:08:52;;;;;;;1.50;1.15;;;;;;;19.14;58.43;94168.88;5036574;28;20033;-37
2022/09/05 18:11:26;;;;;;;1.70;1.60;;;;;;;18.87;59.34;94176.63;5033930;28;20481;-37
2022/09/05 18:14:01;;;;;;;1.75;1.65;;;;;;;18.74;59.60;94182.63;5036184;28;20391;-37
2022/09/05 18:16:37;;;;;;;2.25;1.40;;;;;;;18.62;60.79;94182.47;5032319;28;20025;-38
2022/09/05 18:19:12;;;;;;;2.05;1.50;;;;;;;18.79;60.20;94182.38;5034735;28;20076;-37
2022/09/05 18:21:47;;;;;;;1.92;1.83;;;;;;;18.74;60.74;94197.38;5032323;28;20557;-37
2022/09/05 18:24:34;;;;;;;1.73;1.38;;;;;;;18.73;60.72;94189.56;5024600;28;20066;-37
2022/09/05 18:27:13;;;;;;;2.42;1.70;;;;;;;18.64;61.17;94184.66;5024729;28;20074;-37
2022/09/05 18:29:40;;;;;;;1.42;1.17;;;;;;;18.49;60.99;94193.31;5024931;28;20053;-37
2022/09/05 18:32:09;;;;;;;1.95;1.42;;;;;;;18.42;61.47;94189.28;5028930;28;20505;-37
2022/09/05 18:34:35;;;;;;;1.63;1.40;;;;;;;18.32;61.73;94190.56;5027275;28;20029;-37
2022/09/05 18:37:56;;;;;;;1.77;1.45;;;;;;;18.23;61.96;94189.19;5044865;28;20105;-37
2022/09/05 18:40:52;;;;;;;1.63;1.10;;;;;;;18.18;62.20;94182.56;5043772;28;20108;-38
2022/09/05 18:43:26;;;;;;;1.35;1.25;;;;;;;18.16;61.90;94182.41;5025125;28;20082;-38
2022/09/05 18:46:05;;;;;;;1.60;1.33;;;;;;;18.07;62.33;94180.28;5025047;28;20053;-38
2022/09/05 18:48:44;;;;;;;;;;;;;;;17.90;62.62;94174.75;5025283;28;20037;-38
2022/09/05 18:51:16;;;;;;;2.05;1.52;;;;;;;17.72;63.16;94184.50;5023425;28;19920;-40
2022/09/05 18:53:45;;;;;;;2.13;1.42;;;;;;;17.73;63.35;94180.41;5024755;28;20033;-41
2022/09/05 18:56:47;;;;;;;1.55;1.45;;;;;;;17.72;63.58;94180.97;5023969;28;20105;-41
2022/09/05 18:59:24;;;;;;;1.67;1.52;;;;;;;17.69;63.67;94182.88;5035591;28;20040;-39
2022/09/05 19:01:52;;;;;;;1.70;1.30;;;;;;;17.62;64.24;94178.13;5033195;28;20054;-39
2022/09/05 19:04:22;;;;;;;2.35;1.70;;;;;;;17.59;64.11;94178.53;5035007;28;20452;-38
2022/09/05 19:06:49;;;;;;;2.58;1.65;;;;;;;17.56;64.71;94191.59;5034368;28;20104;-39
2022/09/05 19:09:28;;;;;;;1.70;1.60;;;;;;;17.53;64.89;94180.84;5028424;28;20033;-40
2022/09/05 19:12:03;;;;;;;5.47;1.88;;;;;;;17.40;64.43;94187.47;5023353;28;20029;-39
2022/09/05 19:14:46;;;;;;;2.30;1.85;;;;;;;17.02;65.01;94168.34;5026940;28;20094;-39
2022/09/05 19:17:31;;;;;;;1.45;1.30;;;;;;;16.97;65.54;94179.75;5028152;28;20036;-39
2022/09/05 19:20:12;;;;;;;1.88;1.63;;;;;;;16.97;65.66;94188.13;5031740;28;20037;-39
2022/09/05 19:22:57;;;;;;;1.52;1.42;;;;;;;17.00;65.47;94178.63;5037276;28;20035;-40
2022/09/05 19:25:42;;;;;;;1.35;1.25;;;;;;;16.99;65.49;94179.94;5036840;28;20034;-40
2022/09/05 19:28:21;;;;;;;1.70;1.60;;;;;;;17.01;65.32;94178.03;5040139;28;20025;-40
2022/09/05 19:31:17;;;;;;;1.48;1.38;;;;;;;16.58;66.66;94179.38;5035221;28;20514;-40
2022/09/05 19:33:43;;;;;;;1.83;1.60;;;;;;;16.57;66.41;94175.13;5036546;28;20060;-39
2022/09/05 19:36:31;;;;;;;2.33;1.83;;;;;;;16.64;66.80;94165.94;5032997;28;20442;-39
2022/09/05 19:38:57;;;;;;;1.50;1.40;;;;;;;16.72;66.29;94165.16;5032364;28;20141;-40
2022/09/05 19:41:25;;;;;;;1.73;1.63;;;;;;;16.74;66.49;94170.88;5026234;28;20476;-40
2022/09/05 19:44:05;;;;;;;2.63;1.30;;;;;;;16.68;66.48;94166.28;5037202;28;20462;-40
2022/09/05 19:46:31;;;;;;;1.83;1.73;;;;;;;16.64;66.72;94163.16;5045613;28;20029;-41
2022/09/05 19:49:06;;;;;;;2.90;1.75;;;;;;;16.47;67.45;94163.09;5038812;28;20517;-41
2022/09/05 19:51:32;;;;;;;2.55;1.98;;;;;;;16.30;67.39;94165.84;5026269;28;20459;-43
2022/09/05 19:53:58;;;;;;;2.17;1.48;;;;;;;16.47;66.53;94160.31;5040806;28;20410;-38
2022/09/05 19:56:30;;;;;;;1.88;1.63;;;;;;;16.44;66.83;94167.03;5045317;28;20021;-43
2022/09/05 19:58:57;;;;;;;2.72;1.98;;;;;;;16.48;66.86;94164.56;5045462;28;20028;-40
2022/09/05 20:01:23;;;;;;;1.52;1.42;;;;;;;16.46;67.26;94164.41;5044010;28;20033;-40
2022/09/05 20:03:52;;;;;;;2.88;1.85;;;;;;;16.44;67.60;94167.03;5045366;28;20520;-40
2022/09/05 20:06:21;;;;;;;2.25;1.88;;;;;;;16.35;67.55;94153.72;5043897;28;20025;-41
2022/09/05 20:08:47;;;;;;;3.53;1.50;;;;;;;16.29;67.29;94161.56;5044388;28;20070;-41
2022/09/05 20:11:21;;;;;;;3.15;1.98;;;;;;;16.22;67.08;94151.22;5045630;28;20035;-40
2022/09/05 20:13:47;;;;;;;1.58;1.48;;;;;;;16.27;67.31;94166.22;5042749;28;20025;-40
2022/09/05 20:16:13;;;;;;;1.33;1.23;;;;;;;16.12;67.15;94155.94;5046391;28;20120;-40
2022/09/05 20:18:41;;;;;;;1.48;1.38;;;;;;;16.19;67.05;94160.72;5047014;28;20436;-40
2022/09/05 20:21:12;;;;;;;2.60;1.70;;;;;;;16.07;67.09;94156.91;5050622;27;20039;-40
2022/09/05 20:23:42;;;;;;;2.95;1.85;;;;;;;16.15;67.20;94162.44;5047419;28;20160;-41